Time;durP1;ratioP1;P1;durP2;ratioP2;P2;SDS_P1;SDS_P2;PMS_P1;PMS_P2;Temp;Humidity;BMP_temperature;BMP_pressure;BME280_temperature;BME280_humidity;BME280_pressure;Samples;Min_cycle;Max_cycle;Signal;HPM_P1;HPM_P2
2022/04/24 00:01:09;;;;;;;14.73;4.50;;;7.70;99.90;;;;;;5259776;28;20267;-51
2022/04/24 00:03:39;;;;;;;7.83;3.50;;;7.60;99.90;;;;;;5261173;28;20188;-51
2022/04/24 00:06:10;;;;;;;4.00;3.63;;;7.60;99.90;;;;;;5262864;28;20178;-51
2022/04/24 00:08:40;;;;;;;4.13;3.70;;;7.60;99.90;;;;;;5259606;28;20202;-50
2022/04/24 00:11:11;;;;;;;7.87;3.97;;;7.60;99.90;;;;;;5253431;28;20206;-49
2022/04/24 00:13:42;;;;;;;6.00;4.40;;;7.50;99.90;;;;;;5262898;28;20655;-45
2022/04/24 00:16:12;;;;;;;6.93;4.10;;;7.50;99.90;;;;;;5261423;28;20222;-51
2022/04/24 00:18:43;;;;;;;5.40;4.10;;;7.40;99.90;;;;;;5259141;28;20483;-46
2022/04/24 00:21:14;;;;;;;6.60;4.77;;;7.40;99.90;;;;;;5257672;28;20232;-46
2022/04/24 00:23:44;;;;;;;5.47;4.10;;;7.40;99.90;;;;;;5252227;28;20211;-46
2022/04/24 00:26:15;;;;;;;5.70;3.70;;;7.30;99.90;;;;;;5261362;28;20177;-45
2022/04/24 00:28:45;;;;;;;8.60;4.33;;;7.30;99.90;;;;;;5263961;28;20197;-47
2022/04/24 00:31:16;;;;;;;5.50;4.23;;;7.20;99.90;;;;;;5256532;28;20641;-46
2022/04/24 00:33:47;;;;;;;7.77;4.00;;;7.30;99.90;;;;;;5261101;28;20185;-46
2022/04/24 00:36:17;;;;;;;8.23;4.83;;;7.20;99.90;;;;;;5253242;28;20231;-51
2022/04/24 00:38:48;;;;;;;5.00;3.83;;;7.20;99.90;;;;;;5248677;28;20259;-49
2022/04/24 00:41:18;;;;;;;7.90;5.30;;;7.10;99.90;;;;;;5259644;28;20774;-48
2022/04/24 00:43:53;;;;;;;5.60;5.13;;;7.00;99.90;;;;;;5262756;28;20338;-48
2022/04/24 00:46:43;;;;;;;7.10;4.43;;;7.00;99.90;;;;;;5255228;28;20250;-51
2022/04/24 00:49:14;;;;;;;14.73;4.83;;;6.90;99.90;;;;;;5252877;28;20540;-49
2022/04/24 00:51:44;;;;;;;8.20;4.50;;;6.90;99.90;;;;;;5253196;28;20506;-50
2022/04/24 00:54:15;;;;;;;5.90;4.30;;;6.80;99.90;;;;;;5254064;28;20200;-48
2022/04/24 00:56:46;;;;;;;4.43;4.03;;;6.80;99.90;;;;;;5261231;28;20243;-48
2022/04/24 00:59:17;;;;;;;9.93;4.90;;;6.80;99.90;;;;;;5260993;28;21034;-48
2022/04/24 01:01:47;;;;;;;6.07;4.60;;;6.70;99.90;;;;;;5262501;28;20468;-48
2022/04/24 01:04:19;;;;;;;7.43;5.30;;;6.70;99.90;;;;;;5261597;28;20188;-47
2022/04/24 01:06:50;;;;;;;6.57;4.40;;;6.70;99.90;;;;;;5263118;28;20188;-48
2022/04/24 01:09:23;;;;;;;4.33;3.93;;;6.70;99.90;;;;;;5261515;28;20508;-48
2022/04/24 01:11:56;;;;;;;11.67;5.20;;;6.60;99.90;;;;;;5260496;28;20458;-48
2022/04/24 01:14:28;;;;;;;6.30;4.87;;;6.60;99.90;;;;;;5256225;28;21010;-48
2022/04/24 01:17:00;;;;;;;8.13;4.73;;;6.50;99.90;;;;;;5262190;28;20438;-48
2022/04/24 01:19:31;;;;;;;5.93;4.70;;;6.50;99.90;;;;;;5262187;28;20463;-48
2022/04/24 01:22:02;;;;;;;9.23;4.30;;;6.50;99.90;;;;;;5263663;28;20793;-49
2022/04/24 01:24:32;;;;;;;5.60;3.63;;;6.40;99.90;;;;;;5262237;28;20457;-50
2022/04/24 01:27:03;;;;;;;9.97;4.90;;;6.40;99.90;;;;;;5263532;28;20179;-48
2022/04/24 01:29:34;;;;;;;5.63;4.13;;;6.40;99.90;;;;;;5264199;28;20223;-48
2022/04/24 01:32:05;;;;;;;6.30;4.77;;;6.40;99.90;;;;;;5254275;28;20192;-48
2022/04/24 01:34:35;;;;;;;7.03;3.77;;;6.30;99.90;;;;;;5245645;28;20183;-49
2022/04/24 01:37:06;;;;;;;10.50;4.70;;;6.30;99.90;;;;;;5263196;28;20433;-48
2022/04/24 01:39:36;;;;;;;5.70;4.33;;;6.30;99.90;;;;;;5262197;28;20208;-49
2022/04/24 01:42:07;;;;;;;21.13;5.10;;;6.20;99.90;;;;;;5257444;28;20200;-48
2022/04/24 01:44:37;;;;;;;8.77;4.80;;;6.20;99.90;;;;;;5258380;28;20208;-48
2022/04/24 01:47:08;;;;;;;9.83;5.33;;;6.20;99.90;;;;;;5255348;28;20572;-49
2022/04/24 01:49:39;;;;;;;8.90;5.10;;;6.10;99.90;;;;;;5263954;28;20203;-49
2022/04/24 01:52:09;;;;;;;7.57;5.23;;;6.10;99.90;;;;;;5259570;28;20236;-48
2022/04/24 01:54:40;;;;;;;8.23;4.90;;;6.10;99.90;;;;;;5260451;28;20187;-49
2022/04/24 01:57:10;;;;;;;4.80;4.37;;;6.00;99.90;;;;;;5253376;28;20182;-47
2022/04/24 01:59:41;;;;;;;7.83;5.03;;;6.00;99.90;;;;;;5259600;28;20208;-48
2022/04/24 02:02:11;;;;;;;6.93;5.20;;;6.00;99.90;;;;;;5258420;28;20211;-47
2022/04/24 02:04:42;;;;;;;5.83;4.50;;;6.00;99.90;;;;;;5264098;28;20263;-47
2022/04/24 02:07:12;;;;;;;4.77;4.37;;;6.00;99.90;;;;;;5252879;28;20220;-48
2022/04/24 02:09:43;;;;;;;6.10;4.70;;;5.90;99.90;;;;;;5261263;28;20707;-46
2022/04/24 02:12:13;;;;;;;8.83;5.20;;;5.90;99.90;;;;;;5250232;28;20310;-53
2022/04/24 02:14:44;;;;;;;8.63;4.93;;;5.90;99.90;;;;;;5258316;28;20184;-46
2022/04/24 02:17:14;;;;;;;15.20;5.47;;;5.80;99.90;;;;;;5260576;28;20215;-48
2022/04/24 02:19:45;;;;;;;7.53;5.10;;;5.80;99.90;;;;;;5258255;28;20237;-47
2022/04/24 02:22:16;;;;;;;7.43;5.17;;;5.80;99.90;;;;;;5254897;28;20218;-48
2022/04/24 02:24:46;;;;;;;5.87;4.80;;;5.70;99.90;;;;;;5259911;28;20181;-47
2022/04/24 02:27:17;;;;;;;9.83;4.93;;;5.70;99.90;;;;;;5256452;28;20183;-47
2022/04/24 02:29:47;;;;;;;4.80;4.40;;;5.70;99.90;;;;;;5253438;28;20292;-46
2022/04/24 02:32:18;;;;;;;5.63;5.10;;;5.70;99.90;;;;;;5258203;28;20194;-48
2022/04/24 02:34:49;;;;;;;8.20;5.07;;;5.60;99.90;;;;;;5258106;28;20245;-47
2022/04/24 02:37:19;;;;;;;7.97;5.53;;;5.60;99.90;;;;;;5256568;28;21112;-47
2022/04/24 02:39:50;;;;;;;10.30;6.00;;;5.60;99.90;;;;;;5253413;28;20681;-46
2022/04/24 02:42:20;;;;;;;5.83;5.20;;;5.60;99.90;;;;;;5262431;28;20209;-48
2022/04/24 02:44:51;;;;;;;7.63;5.27;;;5.60;99.90;;;;;;5263969;28;20178;-47
2022/04/24 02:47:21;;;;;;;10.43;6.10;;;5.60;99.90;;;;;;5261565;28;20314;-48
2022/04/24 02:49:52;;;;;;;5.20;4.77;;;5.50;99.90;;;;;;5253460;28;20236;-48
2022/04/24 02:52:22;;;;;;;11.40;6.50;;;5.60;99.90;;;;;;5258375;28;20847;-46
2022/04/24 02:54:53;;;;;;;6.13;4.90;;;5.60;99.90;;;;;;5258784;28;20195;-47
2022/04/24 02:57:24;;;;;;;9.67;5.80;;;5.60;99.90;;;;;;5257406;28;20653;-47
2022/04/24 02:59:55;;;;;;;9.90;5.77;;;5.60;99.90;;;;;;5259902;28;20199;-47
2022/04/24 03:02:26;;;;;;;5.50;4.23;;;5.60;99.90;;;;;;5260440;28;20285;-46
2022/04/24 03:04:56;;;;;;;8.53;5.33;;;5.60;99.90;;;;;;5259020;28;20428;-49
2022/04/24 03:07:27;;;;;;;10.00;5.80;;;5.60;99.90;;;;;;5261955;28;20684;-48
2022/04/24 03:09:57;;;;;;;7.43;4.90;;;5.60;99.90;;;;;;5260523;28;20205;-46
2022/04/24 03:12:31;;;;;;;9.77;5.20;;;5.60;99.90;;;;;;5249243;28;20179;-47
2022/04/24 03:15:03;;;;;;;8.53;5.00;;;5.60;99.90;;;;;;5254798;28;20187;-48
2022/04/24 03:17:35;;;;;;;6.37;5.20;;;5.60;99.90;;;;;;5261432;28;20437;-49
2022/04/24 03:20:07;;;;;;;11.37;5.80;;;5.60;99.90;;;;;;5255194;28;20802;-49
2022/04/24 03:22:39;;;;;;;9.10;6.30;;;5.50;99.90;;;;;;5260400;28;20455;-48
2022/04/24 03:25:10;;;;;;;12.20;5.60;;;5.50;99.90;;;;;;5254693;28;20471;-48
2022/04/24 03:27:40;;;;;;;10.70;5.63;;;5.50;99.90;;;;;;5261178;28;20463;-48
2022/04/24 03:30:11;;;;;;;8.80;5.57;;;5.40;99.90;;;;;;5257724;28;20429;-47
2022/04/24 03:32:41;;;;;;;9.10;5.93;;;5.40;99.90;;;;;;5258089;28;20186;-47
2022/04/24 03:35:12;;;;;;;9.23;5.87;;;5.40;99.90;;;;;;5250907;28;20196;-48
2022/04/24 03:37:43;;;;;;;7.63;5.13;;;5.30;99.90;;;;;;5253651;28;20574;-48
2022/04/24 03:40:13;;;;;;;6.90;6.30;;;5.30;99.90;;;;;;5257296;28;20553;-47
2022/04/24 03:42:44;;;;;;;8.83;5.27;;;5.30;99.90;;;;;;5246765;28;20470;-48
2022/04/24 03:45:14;;;;;;;5.67;5.17;;;5.30;99.90;;;;;;5263065;28;20187;-47
2022/04/24 03:47:47;;;;;;;8.50;5.20;;;5.30;99.90;;;;;;5261889;28;20188;-47
2022/04/24 03:50:21;;;;;;;5.83;5.30;;;5.20;99.90;;;;;;5265298;28;20182;-48
2022/04/24 03:52:52;;;;;;;10.73;6.23;;;5.30;99.90;;;;;;5261566;28;20511;-48
2022/04/24 03:55:22;;;;;;;14.67;5.63;;;5.20;99.90;;;;;;5253379;28;20554;-49
2022/04/24 03:57:53;;;;;;;7.50;6.50;;;5.20;99.90;;;;;;5260483;28;20811;-48
2022/04/24 04:00:23;;;;;;;12.43;6.03;;;5.20;99.90;;;;;;5258421;28;20342;-49
2022/04/24 04:02:54;;;;;;;9.83;6.10;;;5.20;99.90;;;;;;5263224;28;20689;-48
2022/04/24 04:05:25;;;;;;;8.10;5.80;;;5.20;99.90;;;;;;5257734;28;20204;-48
2022/04/24 04:07:56;;;;;;;9.53;5.57;;;5.20;99.90;;;;;;5264881;28;20226;-48
2022/04/24 04:10:27;;;;;;;6.57;5.83;;;5.20;99.90;;;;;;5262999;28;20270;-47
2022/04/24 04:12:57;;;;;;;10.23;5.93;;;5.20;99.90;;;;;;5263325;28;20479;-49
2022/04/24 04:15:28;;;;;;;6.50;5.70;;;5.20;99.90;;;;;;5262751;28;20204;-48
2022/04/24 04:17:58;;;;;;;12.03;6.20;;;5.20;99.90;;;;;;5260770;28;20198;-49
2022/04/24 04:20:29;;;;;;;11.30;6.67;;;5.30;99.90;;;;;;5260731;28;20183;-47
2022/04/24 04:22:59;;;;;;;17.53;7.00;;;5.30;99.90;;;;;;5261762;28;20242;-47
2022/04/24 04:25:30;;;;;;;7.27;5.70;;;5.30;99.90;;;;;;5255305;28;20202;-47
2022/04/24 04:28:01;;;;;;;11.20;6.40;;;5.40;99.90;;;;;;5256193;28;20195;-47
2022/04/24 04:30:31;;;;;;;13.37;5.57;;;5.40;99.90;;;;;;5261441;28;20523;-47
2022/04/24 04:33:02;;;;;;;10.40;6.23;;;5.50;99.90;;;;;;5260497;28;20267;-47
2022/04/24 04:35:32;;;;;;;7.73;6.50;;;5.60;99.90;;;;;;5251834;28;20622;-49
2022/04/24 04:38:03;;;;;;;16.70;7.10;;;5.60;99.90;;;;;;5259538;28;20207;-48
2022/04/24 04:40:34;;;;;;;14.67;7.03;;;5.80;99.90;;;;;;5262067;28;20251;-48
2022/04/24 04:43:04;;;;;;;10.27;6.13;;;5.90;99.90;;;;;;5255299;28;20215;-48
2022/04/24 04:45:35;;;;;;;11.70;6.87;;;6.20;99.90;;;;;;5262086;28;20182;-48
2022/04/24 04:48:05;;;;;;;15.23;6.00;;;6.20;99.90;;;;;;5263596;28;20206;-47
2022/04/24 04:50:36;;;;;;;9.10;6.20;;;6.40;99.90;;;;;;5255356;28;20188;-47
2022/04/24 04:53:06;;;;;;;9.70;6.00;;;6.60;99.90;;;;;;5263034;28;20190;-48
2022/04/24 04:55:37;;;;;;;12.77;6.33;;;6.80;99.90;;;;;;5265291;28;20240;-49
2022/04/24 04:58:08;;;;;;;7.50;6.07;;;7.40;99.90;;;;;;5255018;28;20300;-48
2022/04/24 05:00:38;;;;;;;8.30;5.27;;;7.80;99.90;;;;;;5254881;28;20213;-47
2022/04/24 05:03:09;;;;;;;12.90;6.30;;;8.60;99.90;;;;;;5247073;28;20201;-48
2022/04/24 05:05:39;;;;;;;16.20;5.77;;;8.80;99.90;;;;;;5263750;28;20273;-47
2022/04/24 05:08:10;;;;;;;5.97;5.30;;;8.10;99.90;;;;;;5264785;28;20281;-48
2022/04/24 05:10:40;;;;;;;7.43;5.90;;;7.90;99.90;;;;;;5263488;28;20212;-47
2022/04/24 05:13:11;;;;;;;7.57;6.17;;;7.70;99.90;;;;;;5259019;28;20192;-48
2022/04/24 05:15:41;;;;;;;9.20;6.23;;;7.70;99.90;;;;;;5262246;28;20184;-48
2022/04/24 05:18:12;;;;;;;9.00;5.90;;;8.10;99.90;;;;;;5263942;28;20193;-48
2022/04/24 05:20:43;;;;;;;8.10;5.40;;;9.50;99.90;;;;;;5261867;28;20194;-50
2022/04/24 05:23:13;;;;;;;10.90;5.60;;;11.00;99.90;;;;;;5262782;28;20514;-49
2022/04/24 05:25:44;;;;;;;12.20;5.80;;;12.20;99.80;;;;;;5262445;28;20264;-48
2022/04/24 05:28:14;;;;;;;8.37;5.20;;;13.00;90.30;;;;;;5261332;28;20280;-51
2022/04/24 05:30:45;;;;;;;7.07;5.00;;;13.30;81.30;;;;;;5262876;28;20587;-48
2022/04/24 05:33:17;;;;;;;8.27;5.00;;;12.90;80.70;;;;;;5263209;28;20276;-49
2022/04/24 05:35:49;;;;;;;5.13;4.73;;;12.40;85.60;;;;;;5262317;28;20189;-50
2022/04/24 05:38:20;;;;;;;16.80;5.73;;;12.20;86.90;;;;;;5258425;28;20459;-48
2022/04/24 05:40:50;;;;;;;8.40;6.23;;;12.20;87.60;;;;;;5261305;28;20438;-50
2022/04/24 05:43:21;;;;;;;9.80;5.63;;;12.60;86.10;;;;;;5245809;28;20564;-50
2022/04/24 05:45:51;;;;;;;8.13;5.83;;;13.40;78.20;;;;;;5261118;28;20184;-48
2022/04/24 05:48:22;;;;;;;11.47;5.90;;;13.90;73.30;;;;;;5260535;28;20291;-50
2022/04/24 05:50:52;;;;;;;9.53;5.93;;;13.30;70.50;;;;;;5249778;28;20186;-49
2022/04/24 05:53:23;;;;;;;9.23;6.33;;;11.90;78.30;;;;;;5259262;28;20649;-50
2022/04/24 05:55:53;;;;;;;6.77;6.00;;;11.00;91.00;;;;;;5259275;28;20189;-48
2022/04/24 05:58:24;;;;;;;16.60;5.67;;;10.50;96.00;;;;;;5262752;28;20252;-50
2022/04/24 06:00:54;;;;;;;5.80;5.23;;;9.90;99.90;;;;;;5260132;28;20602;-48
2022/04/24 06:03:25;;;;;;;7.80;4.77;;;9.70;99.90;;;;;;5260267;28;20190;-48
2022/04/24 06:05:56;;;;;;;8.43;5.50;;;10.60;99.90;;;;;;5254024;28;20209;-49
2022/04/24 06:08:26;;;;;;;7.80;5.67;;;10.50;99.90;;;;;;5263642;28;20564;-49
2022/04/24 06:10:57;;;;;;;12.33;6.07;;;10.00;99.90;;;;;;5263109;28;20180;-48
2022/04/24 06:13:28;;;;;;;5.33;4.80;;;9.80;99.90;;;;;;5264534;28;20634;-48
2022/04/24 06:15:58;;;;;;;8.53;5.87;;;9.90;99.90;;;;;;5267203;28;20169;-49
2022/04/24 06:18:29;;;;;;;8.83;6.17;;;9.90;99.90;;;;;;5261469;28;20193;-48
2022/04/24 06:20:59;;;;;;;15.60;7.00;;;9.90;99.90;;;;;;5255745;28;20776;-48
2022/04/24 06:23:31;;;;;;;11.97;6.13;;;9.80;99.90;;;;;;5264810;28;20236;-48
2022/04/24 06:26:02;;;;;;;6.57;5.70;;;9.80;99.90;;;;;;5257816;28;20178;-47
2022/04/24 06:28:33;;;;;;;14.63;6.40;;;9.80;99.90;;;;;;5257216;28;20967;-48
2022/04/24 06:31:03;;;;;;;8.27;5.30;;;10.00;99.90;;;;;;5262581;28;20177;-47
2022/04/24 06:33:34;;;;;;;12.00;5.93;;;10.10;99.90;;;;;;5259211;28;20539;-48
2022/04/24 06:36:04;;;;;;;9.00;6.30;;;10.50;99.90;;;;;;5255579;28;20189;-48
2022/04/24 06:38:35;;;;;;;10.07;6.10;;;10.70;99.90;;;;;;5262658;28;20224;-48
2022/04/24 06:41:05;;;;;;;10.70;6.00;;;11.10;99.90;;;;;;5262497;28;20653;-48
2022/04/24 06:43:36;;;;;;;11.03;5.90;;;11.70;99.90;;;;;;5263259;28;20227;-48
2022/04/24 06:46:07;;;;;;;8.90;6.07;;;12.70;93.20;;;;;;5265273;28;20185;-49
2022/04/24 06:48:37;;;;;;;8.20;5.83;;;13.80;82.60;;;;;;5265494;28;20217;-49
2022/04/24 06:51:07;;;;;;;5.60;5.10;;;14.90;69.80;;;;;;5258944;28;20588;-49
2022/04/24 06:53:39;;;;;;;7.50;5.50;;;15.30;61.40;;;;;;5259146;28;20176;-49
2022/04/24 06:56:10;;;;;;;8.00;6.07;;;15.10;61.80;;;;;;5263899;28;20166;-49
2022/04/24 06:58:40;;;;;;;5.20;4.80;;;15.70;58.40;;;;;;5264663;28;20525;-51
2022/04/24 07:01:11;;;;;;;23.10;5.70;;;16.80;54.40;;;;;;5264290;28;20200;-49
2022/04/24 07:03:41;;;;;;;7.43;5.60;;;16.60;51.80;;;;;;5256866;28;20189;-51
2022/04/24 07:06:12;;;;;;;11.53;5.87;;;15.90;54.30;;;;;;5264208;28;20236;-51
2022/04/24 07:08:42;;;;;;;7.47;5.33;;;16.70;51.90;;;;;;5263593;28;20197;-50
2022/04/24 07:11:13;;;;;;;6.60;5.90;;;16.50;51.60;;;;;;5261590;28;20369;-49
2022/04/24 07:13:44;;;;;;;7.97;4.80;;;15.90;52.30;;;;;;5262582;28;20182;-50
2022/04/24 07:16:15;;;;;;;7.13;5.50;;;15.30;53.60;;;;;;5269018;28;20665;-50
2022/04/24 07:18:45;;;;;;;6.03;5.20;;;16.00;53.30;;;;;;5267703;28;20487;-51
2022/04/24 07:21:16;;;;;;;15.23;6.30;;;17.20;50.80;;;;;;5268865;28;20584;-50
2022/04/24 07:23:46;;;;;;;8.23;5.93;;;18.40;47.80;;;;;;5270539;28;20219;-50
2022/04/24 07:26:17;;;;;;;8.50;4.83;;;19.20;45.00;;;;;;5269944;28;20191;-51
2022/04/24 07:28:47;;;;;;;5.47;4.80;;;18.40;43.90;;;;;;5265454;28;20212;-49
2022/04/24 07:31:19;;;;;;;14.47;5.20;;;18.30;45.90;;;;;;5264111;28;20212;-50
2022/04/24 07:33:50;;;;;;;7.83;5.80;;;19.60;44.00;;;;;;5269442;28;20676;-49
2022/04/24 07:36:20;;;;;;;6.33;5.53;;;20.80;40.60;;;;;;5266998;28;20432;-54
2022/04/24 07:38:51;;;;;;;6.37;5.63;;;20.30;39.70;;;;;;5265663;28;20212;-52
2022/04/24 07:41:21;;;;;;;5.20;4.77;;;18.60;42.30;;;;;;5264508;28;20198;-53
2022/04/24 07:43:52;;;;;;;8.90;5.60;;;18.70;42.70;;;;;;5269133;28;20221;-53
2022/04/24 07:46:23;;;;;;;10.67;5.10;;;19.70;41.20;;;;;;5262101;28;20173;-50
2022/04/24 07:48:53;;;;;;;6.50;5.20;;;19.30;39.80;;;;;;5265334;28;20250;-47
2022/04/24 07:51:24;;;;;;;10.37;5.20;;;17.40;42.90;;;;;;5264169;28;20803;-47
2022/04/24 07:53:55;;;;;;;4.93;4.40;;;17.00;45.60;;;;;;5265865;28;20174;-47
2022/04/24 07:56:26;;;;;;;8.43;4.63;;;18.90;43.20;;;;;;5265922;28;20223;-47
2022/04/24 07:58:56;;;;;;;12.73;4.70;;;20.60;40.00;;;;;;5259520;28;20205;-46
2022/04/24 08:01:27;;;;;;;5.93;5.10;;;21.10;38.00;;;;;;5260630;28;20206;-46
2022/04/24 08:03:57;;;;;;;8.03;5.03;;;20.20;37.70;;;;;;5260705;28;20210;-57
2022/04/24 08:06:28;;;;;;;5.97;5.00;;;20.30;38.40;;;;;;5249802;28;20270;-47
2022/04/24 08:08:58;;;;;;;5.10;4.13;;;20.70;37.10;;;;;;5263629;28;20288;-58
2022/04/24 08:11:29;;;;;;;7.07;4.20;;;19.60;37.30;;;;;;5267582;28;20273;-48
2022/04/24 08:13:59;;;;;;;4.30;3.97;;;18.80;39.10;;;;;;5266170;28;20182;-47
2022/04/24 08:16:30;;;;;;;5.33;4.10;;;18.40;39.20;;;;;;5259555;28;20653;-50
2022/04/24 08:19:01;;;;;;;16.83;4.13;;;17.70;39.70;;;;;;5260619;28;20213;-46
2022/04/24 08:21:32;;;;;;;3.87;3.70;;;16.80;41.60;;;;;;5260307;28;20643;-47
2022/04/24 08:24:04;;;;;;;3.70;3.50;;;16.80;41.80;;;;;;5263031;28;20176;-53
2022/04/24 08:26:35;;;;;;;3.63;3.33;;;17.40;41.00;;;;;;5267086;28;20177;-46
2022/04/24 08:29:05;;;;;;;5.10;3.90;;;17.90;40.20;;;;;;5264941;28;20509;-48
2022/04/24 08:31:36;;;;;;;4.27;3.93;;;18.30;39.50;;;;;;5260804;28;20220;-47
2022/04/24 08:34:06;;;;;;;4.20;3.80;;;18.20;39.20;;;;;;5261302;28;20188;-47
2022/04/24 08:36:37;;;;;;;6.13;3.90;;;17.90;40.00;;;;;;5263403;28;20182;-50
2022/04/24 08:39:07;;;;;;;7.57;4.40;;;17.40;40.60;;;;;;5262618;28;20728;-48
2022/04/24 08:41:39;;;;;;;4.77;3.70;;;17.30;41.30;;;;;;5266762;28;20294;-47
2022/04/24 08:44:10;;;;;;;4.13;3.87;;;17.20;41.90;;;;;;5265578;28;20208;-47
2022/04/24 08:46:43;;;;;;;5.73;4.10;;;16.90;41.60;;;;;;5262007;28;20436;-46
2022/04/24 08:49:15;;;;;;;3.97;3.67;;;16.50;42.40;;;;;;5261468;28;20205;-46
2022/04/24 08:51:45;;;;;;;4.87;4.40;;;16.30;42.80;;;;;;5264040;28;20434;-48
2022/04/24 08:54:17;;;;;;;12.80;4.67;;;16.00;43.40;;;;;;5262934;28;20790;-46
2022/04/24 08:56:49;;;;;;;5.27;3.83;;;15.60;44.20;;;;;;5265088;28;20188;-46
2022/04/24 08:59:21;;;;;;;4.57;3.57;;;15.30;44.50;;;;;;5255326;28;20471;-50
2022/04/24 09:01:52;;;;;;;5.10;3.80;;;15.00;45.10;;;;;;5249923;28;20459;-48
2022/04/24 09:04:22;;;;;;;5.20;3.90;;;15.00;45.70;;;;;;5265600;28;20428;-47
2022/04/24 09:06:57;;;;;;;5.03;4.53;;;15.00;45.80;;;;;;5264266;28;20270;-46
2022/04/24 09:09:29;;;;;;;3.80;3.60;;;14.80;45.70;;;;;;5263357;28;20240;-48
2022/04/24 09:12:09;;;;;;;4.00;3.70;;;14.80;46.40;;;;;;5261088;28;20458;-54
2022/04/24 09:14:40;;;;;;;6.37;4.37;;;14.70;46.80;;;;;;5248104;28;20451;-57
2022/04/24 09:17:26;;;;;;;6.33;4.10;;;14.90;46.90;;;;;;5255335;28;20790;-48
2022/04/24 09:19:57;;;;;;;9.00;4.40;;;14.80;47.20;;;;;;5264513;28;20201;-47
2022/04/24 09:22:27;;;;;;;5.57;4.80;;;14.80;47.90;;;;;;5258727;28;20550;-47
2022/04/24 09:25:01;;;;;;;4.43;4.07;;;14.70;47.30;;;;;;5258740;28;20438;-52
2022/04/24 09:27:34;;;;;;;8.10;4.10;;;14.70;47.50;;;;;;5263048;28;20718;-48
2022/04/24 09:30:10;;;;;;;6.37;4.40;;;14.70;47.30;;;;;;5259940;28;20606;-48
2022/04/24 09:33:07;;;;;;;6.17;4.57;;;14.90;47.50;;;;;;5260393;28;20502;-49
2022/04/24 09:35:39;;;;;;;4.53;4.13;;;15.00;47.00;;;;;;5258923;28;20841;-45
2022/04/24 09:38:17;;;;;;;4.80;4.33;;;15.00;47.00;;;;;;5260370;28;20459;-48
2022/04/24 09:40:49;;;;;;;3.97;3.57;;;14.90;47.10;;;;;;5262909;28;20740;-47
2022/04/24 09:43:20;;;;;;;5.60;4.60;;;15.00;47.40;;;;;;5265087;28;20621;-48
2022/04/24 09:45:54;;;;;;;6.40;4.20;;;15.10;47.00;;;;;;5260566;28;20440;-47
2022/04/24 09:48:26;;;;;;;4.40;4.00;;;15.20;47.00;;;;;;5263653;28;20235;-47
2022/04/24 09:50:58;;;;;;;5.03;4.57;;;15.30;47.00;;;;;;5262877;28;20500;-47
2022/04/24 09:53:32;;;;;;;5.57;4.20;;;15.40;47.40;;;;;;5256426;28;20436;-48
2022/04/24 09:56:03;;;;;;;5.83;4.00;;;15.60;47.10;;;;;;5259805;28;20438;-47
2022/04/24 09:58:35;;;;;;;4.50;4.20;;;15.60;47.00;;;;;;5257094;28;20542;-48
2022/04/24 10:01:08;;;;;;;6.30;4.47;;;15.60;46.00;;;;;;5252392;28;20989;-53
2022/04/24 10:03:39;;;;;;;4.30;4.00;;;15.60;46.30;;;;;;5261663;28;20445;-49
2022/04/24 10:06:10;;;;;;;9.00;4.53;;;15.50;46.10;;;;;;5263223;28;20518;-48
2022/04/24 10:08:41;;;;;;;8.07;4.73;;;15.70;46.10;;;;;;5257180;28;20760;-47
2022/04/24 10:11:12;;;;;;;3.90;3.70;;;15.70;45.80;;;;;;5256639;28;20439;-48
2022/04/24 10:13:45;;;;;;;4.30;3.80;;;15.80;46.00;;;;;;5259986;28;20454;-48
2022/04/24 10:16:47;;;;;;;4.57;4.17;;;15.80;45.90;;;;;;5262355;28;20680;-56
2022/04/24 10:19:27;;;;;;;5.03;4.63;;;15.70;46.30;;;;;;5220966;28;20859;-47
2022/04/24 10:22:06;;;;;;;5.63;4.20;;;15.60;46.70;;;;;;5259293;28;20471;-46
2022/04/24 10:24:42;;;;;;;4.90;4.20;;;15.70;46.50;;;;;;5258550;28;20427;-52
2022/04/24 10:27:13;;;;;;;5.50;4.30;;;15.70;46.70;;;;;;5260778;28;20427;-46
2022/04/24 10:29:59;;;;;;;5.73;4.67;;;16.00;46.70;;;;;;5260327;28;20439;-48
2022/04/24 10:32:30;;;;;;;6.00;3.87;;;16.30;45.60;;;;;;5257270;28;20560;-47
2022/04/24 10:35:01;;;;;;;4.83;4.43;;;16.40;45.90;;;;;;5252154;28;20574;-49
2022/04/24 10:37:33;;;;;;;10.53;4.00;;;16.50;46.90;;;;;;5257030;28;20427;-50
2022/04/24 10:40:12;;;;;;;10.17;4.53;;;16.50;46.80;;;;;;5258093;28;20190;-47
2022/04/24 10:42:43;;;;;;;10.60;5.03;;;16.80;47.00;;;;;;5258471;28;20459;-48
2022/04/24 10:45:19;;;;;;;9.90;4.70;;;17.00;47.10;;;;;;5258073;28;20493;-47
2022/04/24 10:47:50;;;;;;;5.97;4.60;;;16.90;47.10;;;;;;5261277;28;20438;-56
2022/04/24 10:50:22;;;;;;;4.97;4.00;;;16.90;47.40;;;;;;5258037;28;20439;-48
2022/04/24 10:52:55;;;;;;;7.37;5.47;;;16.80;47.30;;;;;;5264293;28;20186;-49
2022/04/24 10:55:29;;;;;;;11.47;5.40;;;16.70;47.40;;;;;;5256589;28;20448;-47
2022/04/24 10:58:02;;;;;;;8.57;6.60;;;16.70;48.00;;;;;;5258458;28;20467;-48
2022/04/24 11:00:34;;;;;;;7.83;4.23;;;16.60;48.00;;;;;;5262468;28;20491;-49
2022/04/24 11:03:06;;;;;;;4.87;4.17;;;16.70;47.50;;;;;;5261264;28;20467;-48
2022/04/24 11:05:39;;;;;;;5.03;4.53;;;16.60;47.50;;;;;;5257514;28;20515;-47
2022/04/24 11:08:17;;;;;;;5.00;3.80;;;16.60;48.30;;;;;;5259236;28;20447;-50
2022/04/24 11:10:49;;;;;;;3.87;3.63;;;16.60;48.00;;;;;;5258365;28;20428;-47
2022/04/24 11:13:20;;;;;;;3.60;3.30;;;16.60;47.40;;;;;;5260806;28;20455;-48
2022/04/24 11:15:53;;;;;;;3.67;3.37;;;16.60;47.60;;;;;;5261183;28;20448;-49
2022/04/24 11:18:26;;;;;;;5.40;4.90;;;16.50;45.90;;;;;;5266125;28;20193;-48
2022/04/24 11:21:01;;;;;;;4.67;4.17;;;16.50;46.80;;;;;;5262772;28;20423;-47
2022/04/24 11:23:38;;;;;;;4.43;4.10;;;16.40;47.10;;;;;;5260111;28;20816;-49
2022/04/24 11:26:12;;;;;;;5.23;4.30;;;16.40;47.00;;;;;;5259239;28;20431;-49
2022/04/24 11:28:49;;;;;;;3.20;3.10;;;16.30;47.10;;;;;;5261091;28;20460;-48
2022/04/24 11:31:21;;;;;;;4.97;3.50;;;16.20;47.10;;;;;;5261171;28;20434;-50
2022/04/24 11:33:57;;;;;;;3.73;3.40;;;16.10;47.40;;;;;;5260844;28;20550;-47
2022/04/24 11:36:33;;;;;;;3.43;3.03;;;16.20;45.90;;;;;;5261427;28;20430;-48
2022/04/24 11:39:07;;;;;;;3.43;3.23;;;16.20;45.20;;;;;;5252974;28;20486;-47
2022/04/24 11:41:39;;;;;;;6.13;3.10;;;16.20;44.80;;;;;;5262043;28;20463;-48
2022/04/24 11:50:14;;;;;;;3.07;2.87;;;16.80;42.60;;;;;;5255660;28;20504;-50
2022/04/24 11:52:48;;;;;;;2.90;2.73;;;17.10;42.00;;;;;;5244972;28;20460;-48
2022/04/24 11:55:23;;;;;;;6.03;3.57;;;17.30;41.60;;;;;;5243477;28;20445;-46
2022/04/24 11:57:58;;;;;;;3.67;3.37;;;17.10;41.40;;;;;;5240919;28;20458;-50
2022/04/24 12:00:38;;;;;;;3.23;3.03;;;16.80;41.90;;;;;;5267337;28;20821;-58
2022/04/24 12:03:09;;;;;;;4.07;3.70;;;16.70;42.00;;;;;;5259852;28;20501;-50
2022/04/24 12:05:41;;;;;;;3.90;3.40;;;16.60;42.20;;;;;;5260469;28;20447;-47
2022/04/24 12:08:12;;;;;;;3.77;3.30;;;16.60;42.50;;;;;;5260576;28;20465;-56
2022/04/24 12:10:46;;;;;;;6.37;2.67;;;16.60;43.00;;;;;;5260122;28;20498;-49
2022/04/24 12:13:23;;;;;;;4.10;3.13;;;16.40;42.70;;;;;;5257757;28;20443;-49
2022/04/24 12:15:54;;;;;;;4.00;3.70;;;16.50;42.90;;;;;;5265880;28;20439;-58
2022/04/24 12:18:25;;;;;;;4.43;3.40;;;16.50;42.70;;;;;;5273768;28;20461;-49
2022/04/24 12:20:56;;;;;;;3.90;2.40;;;16.50;42.50;;;;;;5263162;28;20186;-48
2022/04/24 12:23:28;;;;;;;3.27;3.07;;;16.50;42.10;;;;;;5262223;28;20843;-48
2022/04/24 12:26:00;;;;;;;12.90;8.37;;;16.60;42.00;;;;;;5260903;28;20504;-50
2022/04/24 12:28:31;;;;;;;2.63;2.53;;;16.70;42.10;;;;;;5267151;28;20456;-49
2022/04/24 12:31:03;;;;;;;3.07;2.73;;;17.00;42.60;;;;;;5264120;28;20470;-50
2022/04/24 12:33:53;;;;;;;3.27;2.90;;;17.20;41.80;;;;;;5258959;28;20217;-50
2022/04/24 12:36:24;;;;;;;3.07;2.87;;;17.30;40.90;;;;;;5265409;28;20436;-48
2022/04/24 12:39:04;;;;;;;3.23;3.03;;;17.20;39.70;;;;;;5265081;28;20467;-48
2022/04/24 12:41:38;;;;;;;3.13;2.57;;;17.20;40.00;;;;;;5264413;28;20198;-51
2022/04/24 12:44:08;;;;;;;11.20;2.87;;;17.40;39.80;;;;;;5263167;28;20877;-50
2022/04/24 12:46:39;;;;;;;3.07;2.63;;;17.20;39.70;;;;;;5255443;28;20463;-51
2022/04/24 12:49:10;;;;;;;3.83;2.87;;;17.10;40.10;;;;;;5239527;28;20715;-48
2022/04/24 12:51:40;;;;;;;2.83;2.20;;;17.00;39.70;;;;;;5262927;28;20173;-51
2022/04/24 12:54:11;;;;;;;6.57;2.73;;;16.90;39.90;;;;;;5254596;28;20542;-50
2022/04/24 12:56:42;;;;;;;5.23;3.03;;;17.00;39.70;;;;;;5254225;28;20178;-52
2022/04/24 12:59:13;;;;;;;2.80;2.67;;;17.30;39.70;;;;;;5252675;28;20212;-52
2022/04/24 13:01:44;;;;;;;2.90;2.70;;;17.50;38.90;;;;;;5257333;28;20471;-51
2022/04/24 13:04:15;;;;;;;4.33;2.80;;;17.50;38.50;;;;;;5253382;28;20181;-52
2022/04/24 13:06:45;;;;;;;2.73;2.63;;;17.50;38.30;;;;;;5257928;28;21537;-52
2022/04/24 13:09:16;;;;;;;5.10;2.60;;;17.20;38.20;;;;;;5265247;28;20963;-50
2022/04/24 13:11:47;;;;;;;8.73;4.33;;;17.10;38.40;;;;;;5261917;28;20181;-51
2022/04/24 13:14:18;;;;;;;6.50;3.00;;;17.00;38.30;;;;;;5267958;28;20180;-52
2022/04/24 13:19:38;;;;;;;2.70;2.60;;;17.20;37.90;;;;;;5257308;28;20210;-49
2022/04/24 13:22:09;;;;;;;3.93;2.13;;;17.30;38.00;;;;;;5257731;28;20480;-50